Dauntless Aviation
Airports Europe Ireland
EIKY
KIR

Kerry Airport

Killarney, IRELAND

Airport Info
Suggest Updated Information for this Airport

Location

Latitude / Longitude: 52°10'51"N / 9°31'25"W
  52°10.854'N / 9°31.428'W
  52.1809 / -9.5238

Nearby radio navigation aids

KER KERRY NDB on field.

Runway Information

Runway 07 /25

Dimensions: 4035 x 98 ft.
Surface: ASP
 
Runway 07
Runway 25
Latitude: 52.178858 52.184708
Longitude: -9.538858 -9.523636
Elevation: 75 ft. 75 ft.
Runway true heading: 55.6 235.6
 

Runway 08 /26

Dimensions: 6562 x 148 ft.
Surface: ASP
 
Runway 08
Runway 26
Latitude: 52.177986 52.183767
Longitude: -9.537628 -9.509939
Elevation: 82 ft. 82 ft.
Runway true heading: 68.6 248.6
 

Instrument Procedures

  Aerodrome Chart

IAPs (Instrument Approach Procedures)

  NDB Rwy 08 (Aircraft CAT A/B/C)
  Aerodrome Obstacle Chart - Rwy 08/26
  ILS or LOC Rwy 26 Aircraft CAT A/B/C
  NDB Rwy 26
  Aerodrome Information (Textual)
  RNP Rwy 08 Aircraft CAT A/B/C
  Visual Approach Chart
  RNP Rwy 26 Aircraft CAT A/B/C

Departure Procedures

  SID Rwy 26 CAT A/B
  SID Rwy 26 CAT C
  SID Rwy 08 CAT A/B
  SID Rwy 08 CAT C
Satellite photo at:
Airport distance calculator
From:
Weather Reports

METAR

EINN
38.3nm N
EINN 050800Z 14006KT 9999 FEW010 SCT200 00/M01 Q1046 NOSIG

TAF

EIKY
TAF EIKY 050500Z 0506/0515 13008KT 9999 FEW030
EINN
38.3nm N
TAF EINN 050500Z 0506/0606 VRB03KT 9999 FEW020 PROB40 TEMPO 0506/0510 2000 BR BKN004 PROB30 TEMPO 0506/0508 0500 FG BKN001 BECMG 0510/0512 15010KT BECMG 0518/0520 VRB03KT TEMPO 0520/0524 BKN010 TEMPO 0600/0605 2000 BR BKN004
Safelog

 

Dauntless Aviation

© 2007-2023 Dauntless Aviation, all rights reserved
Information provided via PilotNav comes from a variety of official and unofficial data sources. As errors are possible, do not use PilotNav for primary flight planning purposes. Verify any information that you receive via PilotNav with current and canonical charts and other official documents. The material in this database is subject to database copyrights held by Dauntless Aviation and may not be copied without the express permission of Dauntless Aviation - licenses for use of part of all of this data are available for purchase; enquire via the Dauntless Aviation helpdesk. A number of mechanisms and markers exist in the database to protect against and identify infringement / copyright. Automated queries against this website are strictly prohibited, and all activity is logged and analyzed.